sensor_id;sensor_type;location;lat;lon;timestamp;P1;durP1;ratioP1;P2;durP2;ratioP2
50932;SDS011;36921;49.006;9.292;2023-06-10T00:01:30;4.93;;;2.80;;
50932;SDS011;36921;49.006;9.292;2023-06-10T00:03:56;3.33;;;2.33;;
50932;SDS011;36921;49.006;9.292;2023-06-10T00:06:21;3.25;;;2.33;;
50932;SDS011;36921;49.006;9.292;2023-06-10T00:08:49;2.67;;;2.03;;
50932;SDS011;36921;49.006;9.292;2023-06-10T00:11:14;2.80;;;2.13;;
50932;SDS011;36921;49.006;9.292;2023-06-10T00:13:40;3.33;;;2.17;;
50932;SDS011;36921;49.006;9.292;2023-06-10T00:16:05;4.30;;;2.40;;
50932;SDS011;36921;49.006;9.292;2023-06-10T00:18:31;3.20;;;2.10;;
50932;SDS011;36921;49.006;9.292;2023-06-10T00:20:56;2.72;;;2.10;;
50932;SDS011;36921;49.006;9.292;2023-06-10T00:23:28;2.65;;;2.05;;
50932;SDS011;36921;49.006;9.292;2023-06-10T00:25:55;4.75;;;2.05;;
50932;SDS011;36921;49.006;9.292;2023-06-10T00:28:22;3.28;;;2.35;;
50932;SDS011;36921;49.006;9.292;2023-06-10T00:30:47;3.60;;;2.47;;
50932;SDS011;36921;49.006;9.292;2023-06-10T00:33:13;3.45;;;2.42;;
50932;SDS011;36921;49.006;9.292;2023-06-10T00:35:38;3.50;;;2.75;;
50932;SDS011;36921;49.006;9.292;2023-06-10T00:38:03;3.95;;;2.50;;
50932;SDS011;36921;49.006;9.292;2023-06-10T00:40:28;3.88;;;2.63;;
50932;SDS011;36921;49.006;9.292;2023-06-10T00:42:54;7.32;;;3.38;;
50932;SDS011;36921;49.006;9.292;2023-06-10T00:45:19;5.95;;;2.95;;
50932;SDS011;36921;49.006;9.292;2023-06-10T00:47:44;6.53;;;2.90;;
50932;SDS011;36921;49.006;9.292;2023-06-10T00:50:10;5.50;;;2.85;;
50932;SDS011;36921;49.006;9.292;2023-06-10T00:52:35;4.55;;;3.03;;
50932;SDS011;36921;49.006;9.292;2023-06-10T00:55:01;3.53;;;2.65;;
50932;SDS011;36921;49.006;9.292;2023-06-10T00:57:26;3.70;;;2.80;;
50932;SDS011;36921;49.006;9.292;2023-06-10T00:59:52;3.92;;;3.28;;
50932;SDS011;36921;49.006;9.292;2023-06-10T01:02:19;5.15;;;3.33;;
50932;SDS011;36921;49.006;9.292;2023-06-10T01:04:44;5.95;;;3.28;;
50932;SDS011;36921;49.006;9.292;2023-06-10T01:07:14;4.60;;;3.47;;
50932;SDS011;36921;49.006;9.292;2023-06-10T01:09:55;4.38;;;3.30;;
50932;SDS011;36921;49.006;9.292;2023-06-10T01:14:54;4.50;;;3.05;;
50932;SDS011;36921;49.006;9.292;2023-06-10T01:17:20;4.95;;;3.20;;
50932;SDS011;36921;49.006;9.292;2023-06-10T01:19:52;5.45;;;3.80;;
50932;SDS011;36921;49.006;9.292;2023-06-10T01:22:20;4.45;;;3.13;;
50932;SDS011;36921;49.006;9.292;2023-06-10T01:24:47;6.75;;;3.40;;
50932;SDS011;36921;49.006;9.292;2023-06-10T01:27:15;5.85;;;3.13;;
50932;SDS011;36921;49.006;9.292;2023-06-10T01:29:45;8.07;;;3.15;;
50932;SDS011;36921;49.006;9.292;2023-06-10T01:34:48;5.22;;;3.25;;
50932;SDS011;36921;49.006;9.292;2023-06-10T01:37:15;5.88;;;3.38;;
50932;SDS011;36921;49.006;9.292;2023-06-10T01:39:43;4.45;;;3.03;;
50932;SDS011;36921;49.006;9.292;2023-06-10T01:42:11;3.90;;;2.83;;
50932;SDS011;36921;49.006;9.292;2023-06-10T01:44:38;3.58;;;2.83;;
50932;SDS011;36921;49.006;9.292;2023-06-10T01:47:04;4.10;;;3.20;;
50932;SDS011;36921;49.006;9.292;2023-06-10T01:49:30;4.65;;;3.38;;
50932;SDS011;36921;49.006;9.292;2023-06-10T01:51:55;4.03;;;2.78;;
50932;SDS011;36921;49.006;9.292;2023-06-10T01:54:20;4.97;;;3.00;;
50932;SDS011;36921;49.006;9.292;2023-06-10T01:56:45;3.85;;;2.95;;
50932;SDS011;36921;49.006;9.292;2023-06-10T01:59:11;5.47;;;3.40;;
50932;SDS011;36921;49.006;9.292;2023-06-10T02:01:36;5.68;;;3.13;;
50932;SDS011;36921;49.006;9.292;2023-06-10T02:04:01;5.75;;;3.15;;
50932;SDS011;36921;49.006;9.292;2023-06-10T02:06:27;5.75;;;3.00;;
50932;SDS011;36921;49.006;9.292;2023-06-10T02:08:52;4.22;;;2.88;;
50932;SDS011;36921;49.006;9.292;2023-06-10T02:11:17;5.20;;;3.28;;
50932;SDS011;36921;49.006;9.292;2023-06-10T02:13:42;4.85;;;3.40;;
50932;SDS011;36921;49.006;9.292;2023-06-10T02:16:08;9.95;;;3.47;;
50932;SDS011;36921;49.006;9.292;2023-06-10T02:18:34;5.07;;;3.05;;
50932;SDS011;36921;49.006;9.292;2023-06-10T02:20:59;5.78;;;3.10;;
50932;SDS011;36921;49.006;9.292;2023-06-10T02:23:24;5.72;;;2.75;;
50932;SDS011;36921;49.006;9.292;2023-06-10T02:25:50;4.90;;;3.40;;
50932;SDS011;36921;49.006;9.292;2023-06-10T02:28:15;4.05;;;2.90;;
50932;SDS011;36921;49.006;9.292;2023-06-10T02:30:41;5.55;;;2.92;;
50932;SDS011;36921;49.006;9.292;2023-06-10T02:33:06;4.45;;;2.85;;
50932;SDS011;36921;49.006;9.292;2023-06-10T02:35:35;4.30;;;2.95;;
50932;SDS011;36921;49.006;9.292;2023-06-10T02:38:01;4.88;;;2.90;;
50932;SDS011;36921;49.006;9.292;2023-06-10T02:40:26;4.63;;;2.97;;
50932;SDS011;36921;49.006;9.292;2023-06-10T02:42:52;4.13;;;2.92;;
50932;SDS011;36921;49.006;9.292;2023-06-10T02:45:17;4.18;;;2.67;;
50932;SDS011;36921;49.006;9.292;2023-06-10T02:47:42;4.35;;;3.13;;
50932;SDS011;36921;49.006;9.292;2023-06-10T02:50:07;4.55;;;3.00;;
50932;SDS011;36921;49.006;9.292;2023-06-10T02:52:33;5.07;;;3.15;;
50932;SDS011;36921;49.006;9.292;2023-06-10T02:54:58;5.88;;;3.80;;
50932;SDS011;36921;49.006;9.292;2023-06-10T02:57:23;4.65;;;3.60;;
50932;SDS011;36921;49.006;9.292;2023-06-10T02:59:49;4.78;;;3.15;;
50932;SDS011;36921;49.006;9.292;2023-06-10T03:02:14;5.80;;;3.28;;
50932;SDS011;36921;49.006;9.292;2023-06-10T03:04:40;5.80;;;3.00;;
50932;SDS011;36921;49.006;9.292;2023-06-10T03:07:06;4.68;;;3.50;;
50932;SDS011;36921;49.006;9.292;2023-06-10T03:09:32;4.38;;;3.33;;
50932;SDS011;36921;49.006;9.292;2023-06-10T03:11:57;4.72;;;3.22;;
50932;SDS011;36921;49.006;9.292;2023-06-10T03:14:23;4.65;;;3.10;;
50932;SDS011;36921;49.006;9.292;2023-06-10T03:16:49;5.22;;;3.42;;
50932;SDS011;36921;49.006;9.292;2023-06-10T03:19:15;3.97;;;3.00;;
50932;SDS011;36921;49.006;9.292;2023-06-10T03:21:43;5.60;;;3.67;;
50932;SDS011;36921;49.006;9.292;2023-06-10T03:24:09;5.63;;;3.60;;
50932;SDS011;36921;49.006;9.292;2023-06-10T03:26:35;8.20;;;3.90;;
50932;SDS011;36921;49.006;9.292;2023-06-10T03:29:01;4.90;;;3.90;;
50932;SDS011;36921;49.006;9.292;2023-06-10T03:31:26;6.25;;;4.05;;
50932;SDS011;36921;49.006;9.292;2023-06-10T03:33:51;6.07;;;4.30;;
50932;SDS011;36921;49.006;9.292;2023-06-10T03:36:16;6.05;;;4.40;;
50932;SDS011;36921;49.006;9.292;2023-06-10T03:38:42;7.88;;;4.57;;
50932;SDS011;36921;49.006;9.292;2023-06-10T03:41:08;8.60;;;4.85;;
50932;SDS011;36921;49.006;9.292;2023-06-10T03:43:33;7.03;;;4.40;;
50932;SDS011;36921;49.006;9.292;2023-06-10T03:45:58;7.28;;;4.53;;
50932;SDS011;36921;49.006;9.292;2023-06-10T03:48:24;6.47;;;3.72;;
50932;SDS011;36921;49.006;9.292;2023-06-10T03:50:49;11.30;;;4.20;;
50932;SDS011;36921;49.006;9.292;2023-06-10T03:53:16;5.03;;;3.65;;
50932;SDS011;36921;49.006;9.292;2023-06-10T03:55:41;7.07;;;3.80;;
50932;SDS011;36921;49.006;9.292;2023-06-10T03:58:06;7.43;;;3.72;;
50932;SDS011;36921;49.006;9.292;2023-06-10T04:00:32;6.18;;;3.92;;
50932;SDS011;36921;49.006;9.292;2023-06-10T04:03:07;6.22;;;3.80;;
50932;SDS011;36921;49.006;9.292;2023-06-10T04:05:34;6.07;;;4.35;;
50932;SDS011;36921;49.006;9.292;2023-06-10T04:07:59;5.25;;;4.18;;
50932;SDS011;36921;49.006;9.292;2023-06-10T04:10:26;5.75;;;4.20;;
50932;SDS011;36921;49.006;9.292;2023-06-10T04:12:51;6.18;;;4.60;;
50932;SDS011;36921;49.006;9.292;2023-06-10T04:15:17;6.20;;;4.60;;
50932;SDS011;36921;49.006;9.292;2023-06-10T04:17:42;8.48;;;4.65;;
50932;SDS011;36921;49.006;9.292;2023-06-10T04:20:08;7.55;;;4.47;;
50932;SDS011;36921;49.006;9.292;2023-06-10T04:22:33;7.40;;;5.30;;
50932;SDS011;36921;49.006;9.292;2023-06-10T04:24:58;8.32;;;5.18;;
50932;SDS011;36921;49.006;9.292;2023-06-10T04:27:24;8.55;;;5.53;;
50932;SDS011;36921;49.006;9.292;2023-06-10T04:29:49;7.18;;;5.32;;
50932;SDS011;36921;49.006;9.292;2023-06-10T04:32:14;6.53;;;5.18;;
50932;SDS011;36921;49.006;9.292;2023-06-10T04:34:40;8.45;;;5.50;;
50932;SDS011;36921;49.006;9.292;2023-06-10T04:37:05;11.27;;;5.45;;
50932;SDS011;36921;49.006;9.292;2023-06-10T04:39:31;8.43;;;5.82;;
50932;SDS011;36921;49.006;9.292;2023-06-10T04:41:57;7.38;;;5.45;;
50932;SDS011;36921;49.006;9.292;2023-06-10T04:44:22;8.57;;;5.20;;
50932;SDS011;36921;49.006;9.292;2023-06-10T04:46:47;6.75;;;4.53;;
50932;SDS011;36921;49.006;9.292;2023-06-10T04:49:13;6.07;;;4.78;;
50932;SDS011;36921;49.006;9.292;2023-06-10T04:51:41;8.27;;;4.95;;
50932;SDS011;36921;49.006;9.292;2023-06-10T04:54:06;6.95;;;5.00;;
50932;SDS011;36921;49.006;9.292;2023-06-10T04:56:32;10.30;;;5.28;;
50932;SDS011;36921;49.006;9.292;2023-06-10T04:58:57;6.60;;;5.03;;
50932;SDS011;36921;49.006;9.292;2023-06-10T05:01:23;12.77;;;5.20;;
50932;SDS011;36921;49.006;9.292;2023-06-10T05:03:48;6.90;;;5.00;;
50932;SDS011;36921;49.006;9.292;2023-06-10T05:06:14;7.00;;;4.75;;
50932;SDS011;36921;49.006;9.292;2023-06-10T05:08:39;8.10;;;4.82;;
50932;SDS011;36921;49.006;9.292;2023-06-10T05:11:04;8.02;;;4.80;;
50932;SDS011;36921;49.006;9.292;2023-06-10T05:13:30;5.03;;;4.03;;
50932;SDS011;36921;49.006;9.292;2023-06-10T05:15:55;5.72;;;4.30;;
50932;SDS011;36921;49.006;9.292;2023-06-10T05:18:20;7.47;;;4.57;;
50932;SDS011;36921;49.006;9.292;2023-06-10T05:20:46;5.13;;;3.83;;
50932;SDS011;36921;49.006;9.292;2023-06-10T05:23:11;5.18;;;4.10;;
50932;SDS011;36921;49.006;9.292;2023-06-10T05:25:37;8.43;;;3.88;;
50932;SDS011;36921;49.006;9.292;2023-06-10T05:28:02;5.72;;;3.95;;
50932;SDS011;36921;49.006;9.292;2023-06-10T05:30:27;5.18;;;3.97;;
50932;SDS011;36921;49.006;9.292;2023-06-10T05:32:53;6.15;;;3.72;;
50932;SDS011;36921;49.006;9.292;2023-06-10T05:35:18;5.35;;;4.07;;
50932;SDS011;36921;49.006;9.292;2023-06-10T05:37:44;7.00;;;3.67;;
50932;SDS011;36921;49.006;9.292;2023-06-10T05:40:09;8.55;;;4.28;;
50932;SDS011;36921;49.006;9.292;2023-06-10T05:42:35;7.18;;;4.40;;
50932;SDS011;36921;49.006;9.292;2023-06-10T05:45:01;6.15;;;4.50;;
50932;SDS011;36921;49.006;9.292;2023-06-10T05:47:27;6.28;;;4.10;;
50932;SDS011;36921;49.006;9.292;2023-06-10T05:49:52;7.00;;;4.47;;
50932;SDS011;36921;49.006;9.292;2023-06-10T05:52:18;6.28;;;4.30;;
50932;SDS011;36921;49.006;9.292;2023-06-10T05:54:43;6.60;;;4.00;;
50932;SDS011;36921;49.006;9.292;2023-06-10T05:57:08;4.80;;;3.72;;
50932;SDS011;36921;49.006;9.292;2023-06-10T05:59:34;4.53;;;3.55;;
50932;SDS011;36921;49.006;9.292;2023-06-10T06:02:00;5.13;;;3.30;;
50932;SDS011;36921;49.006;9.292;2023-06-10T06:04:25;6.05;;;3.70;;
50932;SDS011;36921;49.006;9.292;2023-06-10T06:06:51;8.10;;;3.70;;
50932;SDS011;36921;49.006;9.292;2023-06-10T06:09:16;4.60;;;3.42;;
50932;SDS011;36921;49.006;9.292;2023-06-10T06:11:41;4.20;;;3.25;;
50932;SDS011;36921;49.006;9.292;2023-06-10T06:14:06;5.55;;;3.50;;
50932;SDS011;36921;49.006;9.292;2023-06-10T06:16:32;5.53;;;3.38;;
50932;SDS011;36921;49.006;9.292;2023-06-10T06:18:58;4.35;;;3.40;;
50932;SDS011;36921;49.006;9.292;2023-06-10T06:21:23;5.18;;;3.60;;
50932;SDS011;36921;49.006;9.292;2023-06-10T06:23:48;4.65;;;3.38;;
50932;SDS011;36921;49.006;9.292;2023-06-10T06:26:14;4.10;;;3.20;;
50932;SDS011;36921;49.006;9.292;2023-06-10T06:28:39;5.10;;;3.35;;
50932;SDS011;36921;49.006;9.292;2023-06-10T06:31:04;5.95;;;3.63;;
50932;SDS011;36921;49.006;9.292;2023-06-10T06:33:30;5.30;;;3.45;;
50932;SDS011;36921;49.006;9.292;2023-06-10T06:35:55;4.57;;;3.50;;
50932;SDS011;36921;49.006;9.292;2023-06-10T06:38:21;5.03;;;3.65;;
50932;SDS011;36921;49.006;9.292;2023-06-10T06:40:46;4.50;;;3.20;;
50932;SDS011;36921;49.006;9.292;2023-06-10T06:43:11;4.35;;;3.47;;
50932;SDS011;36921;49.006;9.292;2023-06-10T06:45:36;6.47;;;3.25;;
50932;SDS011;36921;49.006;9.292;2023-06-10T06:48:02;4.80;;;3.53;;
50932;SDS011;36921;49.006;9.292;2023-06-10T06:50:27;4.55;;;3.47;;
50932;SDS011;36921;49.006;9.292;2023-06-10T06:52:53;3.80;;;2.95;;
50932;SDS011;36921;49.006;9.292;2023-06-10T06:55:18;6.70;;;3.50;;
50932;SDS011;36921;49.006;9.292;2023-06-10T06:57:43;4.45;;;3.08;;
50932;SDS011;36921;49.006;9.292;2023-06-10T07:00:09;3.70;;;2.92;;
50932;SDS011;36921;49.006;9.292;2023-06-10T07:02:35;3.78;;;3.30;;
50932;SDS011;36921;49.006;9.292;2023-06-10T07:05:00;4.85;;;3.42;;
50932;SDS011;36921;49.006;9.292;2023-06-10T07:07:26;3.95;;;3.05;;
50932;SDS011;36921;49.006;9.292;2023-06-10T07:09:52;3.60;;;2.80;;
50932;SDS011;36921;49.006;9.292;2023-06-10T07:12:17;3.10;;;2.72;;
50932;SDS011;36921;49.006;9.292;2023-06-10T07:14:43;4.65;;;3.22;;
50932;SDS011;36921;49.006;9.292;2023-06-10T07:17:09;3.53;;;2.80;;
50932;SDS011;36921;49.006;9.292;2023-06-10T07:19:34;6.05;;;3.38;;
50932;SDS011;36921;49.006;9.292;2023-06-10T07:21:59;4.75;;;2.88;;
50932;SDS011;36921;49.006;9.292;2023-06-10T07:24:25;3.43;;;2.70;;
50932;SDS011;36921;49.006;9.292;2023-06-10T07:26:50;5.00;;;2.85;;
50932;SDS011;36921;49.006;9.292;2023-06-10T07:29:15;4.15;;;3.03;;
50932;SDS011;36921;49.006;9.292;2023-06-10T07:31:41;4.93;;;3.35;;
50932;SDS011;36921;49.006;9.292;2023-06-10T07:34:06;4.32;;;3.28;;
50932;SDS011;36921;49.006;9.292;2023-06-10T07:36:31;5.35;;;2.97;;
50932;SDS011;36921;49.006;9.292;2023-06-10T07:38:57;3.65;;;2.95;;
50932;SDS011;36921;49.006;9.292;2023-06-10T07:41:23;5.15;;;3.00;;
50932;SDS011;36921;49.006;9.292;2023-06-10T07:43:50;4.53;;;2.95;;
50932;SDS011;36921;49.006;9.292;2023-06-10T07:46:19;3.80;;;2.97;;
50932;SDS011;36921;49.006;9.292;2023-06-10T07:48:48;4.25;;;2.88;;
50932;SDS011;36921;49.006;9.292;2023-06-10T07:51:14;3.42;;;2.78;;
50932;SDS011;36921;49.006;9.292;2023-06-10T07:53:40;4.20;;;2.90;;
50932;SDS011;36921;49.006;9.292;2023-06-10T07:56:05;5.00;;;2.70;;
50932;SDS011;36921;49.006;9.292;2023-06-10T07:58:31;6.00;;;2.97;;
50932;SDS011;36921;49.006;9.292;2023-06-10T08:00:56;3.67;;;2.87;;
50932;SDS011;36921;49.006;9.292;2023-06-10T08:03:21;3.23;;;2.70;;
50932;SDS011;36921;49.006;9.292;2023-06-10T08:05:46;3.60;;;2.97;;
50932;SDS011;36921;49.006;9.292;2023-06-10T08:08:12;3.92;;;2.65;;
50932;SDS011;36921;49.006;9.292;2023-06-10T08:10:38;3.10;;;2.80;;
50932;SDS011;36921;49.006;9.292;2023-06-10T08:13:03;3.17;;;2.50;;
50932;SDS011;36921;49.006;9.292;2023-06-10T08:15:28;3.30;;;2.70;;
50932;SDS011;36921;49.006;9.292;2023-06-10T08:17:54;3.85;;;2.85;;
50932;SDS011;36921;49.006;9.292;2023-06-10T08:20:19;3.70;;;2.80;;
50932;SDS011;36921;49.006;9.292;2023-06-10T08:22:44;3.90;;;3.05;;
50932;SDS011;36921;49.006;9.292;2023-06-10T08:25:10;3.47;;;2.70;;
50932;SDS011;36921;49.006;9.292;2023-06-10T08:27:35;4.37;;;3.07;;
50932;SDS011;36921;49.006;9.292;2023-06-10T08:30:00;3.53;;;3.00;;
50932;SDS011;36921;49.006;9.292;2023-06-10T08:32:26;5.57;;;3.28;;
50932;SDS011;36921;49.006;9.292;2023-06-10T08:34:51;4.00;;;3.10;;
50932;SDS011;36921;49.006;9.292;2023-06-10T08:37:16;3.50;;;2.77;;
50932;SDS011;36921;49.006;9.292;2023-06-10T08:39:42;3.45;;;2.80;;
50932;SDS011;36921;49.006;9.292;2023-06-10T08:42:20;4.05;;;2.92;;
50932;SDS011;36921;49.006;9.292;2023-06-10T08:44:49;4.00;;;2.90;;
50932;SDS011;36921;49.006;9.292;2023-06-10T08:47:22;3.95;;;3.22;;
50932;SDS011;36921;49.006;9.292;2023-06-10T08:49:48;4.50;;;3.07;;
50932;SDS011;36921;49.006;9.292;2023-06-10T08:52:15;4.85;;;2.70;;
50932;SDS011;36921;49.006;9.292;2023-06-10T08:54:47;3.15;;;2.70;;
50932;SDS011;36921;49.006;9.292;2023-06-10T08:57:17;4.07;;;3.00;;
50932;SDS011;36921;49.006;9.292;2023-06-10T08:59:45;4.03;;;2.72;;
50932;SDS011;36921;49.006;9.292;2023-06-10T09:02:11;6.20;;;2.83;;
50932;SDS011;36921;49.006;9.292;2023-06-10T09:04:38;3.10;;;2.80;;
50932;SDS011;36921;49.006;9.292;2023-06-10T09:07:04;4.60;;;3.00;;
50932;SDS011;36921;49.006;9.292;2023-06-10T09:09:30;4.10;;;2.97;;
50932;SDS011;36921;49.006;9.292;2023-06-10T09:11:57;3.30;;;2.90;;
50932;SDS011;36921;49.006;9.292;2023-06-10T09:14:23;11.57;;;7.68;;
50932;SDS011;36921;49.006;9.292;2023-06-10T09:16:49;6.03;;;2.95;;
50932;SDS011;36921;49.006;9.292;2023-06-10T09:19:15;4.38;;;2.92;;
50932;SDS011;36921;49.006;9.292;2023-06-10T09:21:41;4.47;;;3.38;;
50932;SDS011;36921;49.006;9.292;2023-06-10T09:24:07;4.10;;;3.33;;
50932;SDS011;36921;49.006;9.292;2023-06-10T09:26:32;6.32;;;3.05;;
50932;SDS011;36921;49.006;9.292;2023-06-10T09:29:02;3.20;;;2.87;;
50932;SDS011;36921;49.006;9.292;2023-06-10T09:31:29;5.50;;;3.83;;
50932;SDS011;36921;49.006;9.292;2023-06-10T09:33:54;3.03;;;2.40;;
50932;SDS011;36921;49.006;9.292;2023-06-10T09:36:22;4.00;;;2.80;;
50932;SDS011;36921;49.006;9.292;2023-06-10T09:38:49;5.78;;;2.60;;
50932;SDS011;36921;49.006;9.292;2023-06-10T09:41:15;5.03;;;2.72;;
50932;SDS011;36921;49.006;9.292;2023-06-10T09:43:44;4.95;;;2.40;;
50932;SDS011;36921;49.006;9.292;2023-06-10T09:46:17;2.70;;;2.40;;
50932;SDS011;36921;49.006;9.292;2023-06-10T09:48:44;3.55;;;2.53;;
50932;SDS011;36921;49.006;9.292;2023-06-10T09:51:11;4.57;;;2.75;;
50932;SDS011;36921;49.006;9.292;2023-06-10T09:53:38;2.80;;;2.47;;
50932;SDS011;36921;49.006;9.292;2023-06-10T09:56:04;3.63;;;2.67;;
50932;SDS011;36921;49.006;9.292;2023-06-10T09:58:49;2.92;;;2.13;;
50932;SDS011;36921;49.006;9.292;2023-06-10T10:01:18;3.97;;;2.33;;
50932;SDS011;36921;49.006;9.292;2023-06-10T10:03:44;4.53;;;2.15;;
50932;SDS011;36921;49.006;9.292;2023-06-10T10:06:17;3.03;;;2.38;;
50932;SDS011;36921;49.006;9.292;2023-06-10T10:08:47;4.13;;;2.30;;
50932;SDS011;36921;49.006;9.292;2023-06-10T10:11:18;3.28;;;2.72;;
50932;SDS011;36921;49.006;9.292;2023-06-10T10:13:48;2.85;;;2.55;;
50932;SDS011;36921;49.006;9.292;2023-06-10T10:16:15;2.55;;;2.10;;
50932;SDS011;36921;49.006;9.292;2023-06-10T10:18:46;2.38;;;2.17;;
50932;SDS011;36921;49.006;9.292;2023-06-10T10:21:27;3.38;;;2.50;;
50932;SDS011;36921;49.006;9.292;2023-06-10T10:26:42;4.45;;;2.50;;
50932;SDS011;36921;49.006;9.292;2023-06-10T10:31:50;3.17;;;2.25;;
50932;SDS011;36921;49.006;9.292;2023-06-10T10:34:21;2.83;;;2.20;;
50932;SDS011;36921;49.006;9.292;2023-06-10T10:36:53;4.15;;;2.30;;
50932;SDS011;36921;49.006;9.292;2023-06-10T10:39:19;3.40;;;2.38;;
50932;SDS011;36921;49.006;9.292;2023-06-10T10:41:45;3.10;;;2.45;;
50932;SDS011;36921;49.006;9.292;2023-06-10T10:44:12;2.92;;;2.17;;
50932;SDS011;36921;49.006;9.292;2023-06-10T10:46:44;4.50;;;2.47;;
50932;SDS011;36921;49.006;9.292;2023-06-10T10:49:13;3.13;;;2.38;;
50932;SDS011;36921;49.006;9.292;2023-06-10T10:51:54;4.13;;;2.47;;
50932;SDS011;36921;49.006;9.292;2023-06-10T10:54:27;3.60;;;2.70;;
50932;SDS011;36921;49.006;9.292;2023-06-10T10:59:45;6.03;;;2.70;;
50932;SDS011;36921;49.006;9.292;2023-06-10T11:04:58;3.30;;;2.30;;
50932;SDS011;36921;49.006;9.292;2023-06-10T11:07:25;3.58;;;2.33;;
50932;SDS011;36921;49.006;9.292;2023-06-10T11:09:57;2.33;;;2.13;;
50932;SDS011;36921;49.006;9.292;2023-06-10T11:12:53;5.75;;;1.88;;
50932;SDS011;36921;49.006;9.292;2023-06-10T11:15:20;2.53;;;2.25;;
50932;SDS011;36921;49.006;9.292;2023-06-10T11:20:45;4.28;;;2.40;;
50932;SDS011;36921;49.006;9.292;2023-06-10T11:23:26;3.72;;;2.25;;
50932;SDS011;36921;49.006;9.292;2023-06-10T11:33:52;2.75;;;2.47;;
50932;SDS011;36921;49.006;9.292;2023-06-10T11:36:19;2.60;;;2.40;;
50932;SDS011;36921;49.006;9.292;2023-06-10T11:38:44;4.88;;;2.28;;
50932;SDS011;36921;49.006;9.292;2023-06-10T11:41:10;3.47;;;2.50;;
50932;SDS011;36921;49.006;9.292;2023-06-10T11:43:37;3.67;;;2.30;;
50932;SDS011;36921;49.006;9.292;2023-06-10T11:46:07;2.80;;;2.20;;
50932;SDS011;36921;49.006;9.292;2023-06-10T11:48:33;3.03;;;2.15;;
50932;SDS011;36921;49.006;9.292;2023-06-10T11:50:59;2.67;;;2.47;;
50932;SDS011;36921;49.006;9.292;2023-06-10T11:53:24;4.13;;;2.92;;
50932;SDS011;36921;49.006;9.292;2023-06-10T11:55:50;2.80;;;2.30;;
50932;SDS011;36921;49.006;9.292;2023-06-10T11:58:16;3.03;;;2.28;;
50932;SDS011;36921;49.006;9.292;2023-06-10T12:00:47;2.30;;;2.10;;
50932;SDS011;36921;49.006;9.292;2023-06-10T12:03:13;2.45;;;1.92;;
50932;SDS011;36921;49.006;9.292;2023-06-10T12:05:38;2.15;;;1.95;;
50932;SDS011;36921;49.006;9.292;2023-06-10T12:08:09;2.47;;;1.90;;
50932;SDS011;36921;49.006;9.292;2023-06-10T12:10:42;2.63;;;2.15;;
50932;SDS011;36921;49.006;9.292;2023-06-10T12:13:10;2.97;;;2.20;;
50932;SDS011;36921;49.006;9.292;2023-06-10T12:15:36;2.38;;;1.52;;
50932;SDS011;36921;49.006;9.292;2023-06-10T12:18:02;2.35;;;1.40;;
50932;SDS011;36921;49.006;9.292;2023-06-10T12:20:28;4.45;;;2.25;;
50932;SDS011;36921;49.006;9.292;2023-06-10T12:22:58;2.65;;;1.83;;
50932;SDS011;36921;49.006;9.292;2023-06-10T12:25:24;3.13;;;1.60;;
50932;SDS011;36921;49.006;9.292;2023-06-10T12:27:54;1.95;;;1.67;;
50932;SDS011;36921;49.006;9.292;2023-06-10T12:30:23;2.40;;;1.73;;
50932;SDS011;36921;49.006;9.292;2023-06-10T12:32:50;1.70;;;1.55;;
50932;SDS011;36921;49.006;9.292;2023-06-10T12:35:17;1.92;;;1.75;;
50932;SDS011;36921;49.006;9.292;2023-06-10T12:38:04;3.10;;;1.35;;
50932;SDS011;36921;49.006;9.292;2023-06-10T12:40:33;4.40;;;1.48;;
50932;SDS011;36921;49.006;9.292;2023-06-10T12:45:30;3.30;;;1.65;;
50932;SDS011;36921;49.006;9.292;2023-06-10T12:50:35;3.75;;;1.80;;
50932;SDS011;36921;49.006;9.292;2023-06-10T12:53:04;2.33;;;1.80;;
50932;SDS011;36921;49.006;9.292;2023-06-10T12:55:30;2.78;;;2.20;;
50932;SDS011;36921;49.006;9.292;2023-06-10T12:57:56;2.30;;;1.98;;
50932;SDS011;36921;49.006;9.292;2023-06-10T13:00:22;2.42;;;2.00;;
50932;SDS011;36921;49.006;9.292;2023-06-10T13:02:50;3.88;;;1.95;;
50932;SDS011;36921;49.006;9.292;2023-06-10T13:05:17;2.67;;;1.67;;
50932;SDS011;36921;49.006;9.292;2023-06-10T13:07:43;4.15;;;1.67;;
50932;SDS011;36921;49.006;9.292;2023-06-10T13:10:09;2.35;;;1.67;;
50932;SDS011;36921;49.006;9.292;2023-06-10T13:12:34;3.53;;;1.90;;
50932;SDS011;36921;49.006;9.292;2023-06-10T13:15:01;2.28;;;2.00;;
50932;SDS011;36921;49.006;9.292;2023-06-10T13:17:27;2.38;;;1.85;;
50932;SDS011;36921;49.006;9.292;2023-06-10T13:19:52;2.10;;;1.60;;
50932;SDS011;36921;49.006;9.292;2023-06-10T13:22:18;2.00;;;1.80;;
50932;SDS011;36921;49.006;9.292;2023-06-10T13:24:45;1.95;;;1.42;;
50932;SDS011;36921;49.006;9.292;2023-06-10T13:27:10;2.75;;;1.80;;
50932;SDS011;36921;49.006;9.292;2023-06-10T13:29:36;2.47;;;1.88;;
50932;SDS011;36921;49.006;9.292;2023-06-10T13:32:01;4.55;;;2.00;;
50932;SDS011;36921;49.006;9.292;2023-06-10T13:34:26;4.43;;;2.03;;
50932;SDS011;36921;49.006;9.292;2023-06-10T13:36:53;1.98;;;1.77;;
50932;SDS011;36921;49.006;9.292;2023-06-10T13:39:18;4.20;;;1.90;;
50932;SDS011;36921;49.006;9.292;2023-06-10T13:41:43;5.80;;;1.93;;
50932;SDS011;36921;49.006;9.292;2023-06-10T13:44:09;3.07;;;2.10;;
50932;SDS011;36921;49.006;9.292;2023-06-10T13:46:34;2.17;;;1.97;;
50932;SDS011;36921;49.006;9.292;2023-06-10T13:48:59;3.33;;;1.90;;
50932;SDS011;36921;49.006;9.292;2023-06-10T13:51:25;5.03;;;1.98;;
50932;SDS011;36921;49.006;9.292;2023-06-10T13:53:50;3.63;;;2.00;;
50932;SDS011;36921;49.006;9.292;2023-06-10T13:56:17;2.83;;;2.05;;
50932;SDS011;36921;49.006;9.292;2023-06-10T13:58:42;2.08;;;1.88;;
50932;SDS011;36921;49.006;9.292;2023-06-10T14:01:08;2.75;;;2.42;;
50932;SDS011;36921;49.006;9.292;2023-06-10T14:03:33;2.13;;;1.92;;
50932;SDS011;36921;49.006;9.292;2023-06-10T14:05:58;2.10;;;1.85;;
50932;SDS011;36921;49.006;9.292;2023-06-10T14:08:24;2.87;;;1.97;;
50932;SDS011;36921;49.006;9.292;2023-06-10T14:10:49;3.60;;;1.83;;
50932;SDS011;36921;49.006;9.292;2023-06-10T14:13:16;2.10;;;1.65;;
50932;SDS011;36921;49.006;9.292;2023-06-10T14:15:42;3.78;;;2.00;;
50932;SDS011;36921;49.006;9.292;2023-06-10T14:18:07;2.42;;;1.90;;
50932;SDS011;36921;49.006;9.292;2023-06-10T14:20:32;3.55;;;2.53;;
50932;SDS011;36921;49.006;9.292;2023-06-10T14:22:58;2.65;;;2.08;;
50932;SDS011;36921;49.006;9.292;2023-06-10T14:25:24;2.72;;;2.47;;
50932;SDS011;36921;49.006;9.292;2023-06-10T14:27:50;2.97;;;2.58;;
50932;SDS011;36921;49.006;9.292;2023-06-10T14:30:15;3.03;;;2.00;;
50932;SDS011;36921;49.006;9.292;2023-06-10T14:32:41;5.45;;;2.13;;
50932;SDS011;36921;49.006;9.292;2023-06-10T14:35:06;2.83;;;2.03;;
50932;SDS011;36921;49.006;9.292;2023-06-10T14:37:32;2.38;;;2.00;;
50932;SDS011;36921;49.006;9.292;2023-06-10T14:39:57;3.00;;;1.97;;
50932;SDS011;36921;49.006;9.292;2023-06-10T14:42:22;2.70;;;1.83;;
50932;SDS011;36921;49.006;9.292;2023-06-10T14:44:48;2.35;;;1.90;;
50932;SDS011;36921;49.006;9.292;2023-06-10T14:47:14;2.08;;;1.77;;
50932;SDS011;36921;49.006;9.292;2023-06-10T14:49:39;2.35;;;1.80;;
50932;SDS011;36921;49.006;9.292;2023-06-10T14:52:06;2.42;;;1.90;;
50932;SDS011;36921;49.006;9.292;2023-06-10T14:54:33;4.55;;;2.20;;
50932;SDS011;36921;49.006;9.292;2023-06-10T14:56:58;3.38;;;2.00;;
50932;SDS011;36921;49.006;9.292;2023-06-10T14:59:23;2.55;;;1.95;;
50932;SDS011;36921;49.006;9.292;2023-06-10T15:01:48;2.55;;;1.70;;
50932;SDS011;36921;49.006;9.292;2023-06-10T15:04:14;4.28;;;1.92;;
50932;SDS011;36921;49.006;9.292;2023-06-10T15:06:39;2.17;;;1.92;;
50932;SDS011;36921;49.006;9.292;2023-06-10T15:09:05;2.15;;;1.80;;
50932;SDS011;36921;49.006;9.292;2023-06-10T15:11:30;2.27;;;1.90;;
50932;SDS011;36921;49.006;9.292;2023-06-10T15:13:55;3.30;;;2.20;;
50932;SDS011;36921;49.006;9.292;2023-06-10T15:16:20;2.22;;;2.03;;